Portada
METAR-TAF:

METAR-TAF

Aeroports :

Cienfuegos, Cuba

latitud: 22-09N, longitud: 080-24W, altitud: 39 m

Observació

L'informe es va fer fa 57 minuts, a les 11:59 UTC
Vent 4 kt del Nord-Est, variant entre Nord i Est
Temperatura 18°C
Humitat 94%
Pressió 1014 hPa

METAR: MUCF 191159Z AUTO 04004KT 350V100 18/17 Q1014

Hora: 07:56 (12:56 UTC)

Pronòstic

L'informe es va fer fa 1 hora i 56 minuts, a les 11:00 UTC
Pronòstic vàlid del 19 a les 12 UTC al 19 a les 24 UTC
Vent 3 kt amb direcció variable
Visibilitat: 9000 m
Núvols disperses a una alçada de 2000 ft
Evolucionant progressivament
l' 19 a les 15 UTC al 19 a les 17 UTC
Vent 8 kt del Nord/Nord-Est

TAF: MUCF 191100Z 1912/1924 VRB03KT 9000 SCT020 BECMG 1915/1917 03008KT

Observacions i pronòstics meteorològics de més de 4000 aeroports (METAR i TAF).

Les estacions disponibles són els punts grocs i vermells al mapa.

Posi el ratolí al punt desitjat per veure el nom de l'estació.

Feu clic per veure les observacions i els pronòstics meteorològics.

Per canviar el mapa: feu clic els botons verds amb una creu de color negre per apropar; al botó verd amb un guió per allunyar la imatge; o en les fletxes verdes per a mapes adjacents.


METAR-TAF: